Time;durP1;ratioP1;P1;durP2;ratioP2;P2;SDS_P1;SDS_P2;PMS_P1;PMS_P2;Temp;Humidity;BMP_temperature;BMP_pressure;BME280_temperature;BME280_humidity;BME280_pressure;Samples;Min_cycle;Max_cycle;Signal;HPM_P1;HPM_P2
2021/10/28 00:14:04;;;;;;;5.88;3.35;;;;;;;17.69;47.09;101513.81;4139569;28;20104;-60
2021/10/28 00:16:21;;;;;;;6.57;3.50;;;;;;;17.58;47.38;101497.56;4130107;28;20047;-55
2021/10/28 00:20:45;;;;;;;7.43;3.22;;;;;;;17.67;47.13;101513.91;4145531;28;20053;-55
2021/10/28 00:22:47;;;;;;;6.70;3.47;;;;;;;17.70;47.30;101511.09;4148528;28;20486;-56
2021/10/28 00:24:49;;;;;;;;;;;;;;;17.75;47.62;101524.13;4148423;28;20045;-57
2021/10/28 00:26:52;;;;;;;6.35;2.97;;;;;;;17.45;47.53;101473.41;4148102;28;19929;-57
2021/10/28 00:28:58;;;;;;;6.40;3.10;;;;;;;17.71;47.52;101503.97;4148449;28;20108;-57
2021/10/28 00:31:02;;;;;;;5.47;3.30;;;;;;;17.71;47.27;101498.66;4148009;28;20053;-53
2021/10/28 00:33:04;;;;;;;5.60;3.05;;;;;;;17.51;47.54;101459.78;4148234;28;20104;-56
2021/10/28 00:35:06;;;;;;;;;;;;;;;17.72;47.49;101503.88;4148332;28;20119;-59
2021/10/28 00:37:10;;;;;;;5.32;2.95;;;;;;;17.53;47.18;101469.44;4147931;28;19929;-57
2021/10/28 00:39:13;;;;;;;6.70;3.35;;;;;;;17.65;47.23;101486.53;4148119;28;20053;-57
2021/10/28 00:41:19;;;;;;;5.38;2.92;;;;;;;17.72;47.18;101495.91;4147706;28;20053;-55
2021/10/28 00:43:21;;;;;;;6.13;3.33;;;;;;;17.61;47.32;101470.84;4148139;28;20050;-58
2021/10/28 00:45:26;;;;;;;5.70;3.20;;;;;;;17.59;47.36;101462.06;4147787;28;20411;-54
2021/10/28 00:47:33;;;;;;;6.30;3.05;;;;;;;17.66;47.35;101480.25;4147967;28;20041;-59
2021/10/28 00:49:35;;;;;;;5.38;2.80;;;;;;;17.58;47.40;101468.31;4148010;28;20046;-57
2021/10/28 00:51:39;;;;;;;5.90;3.10;;;;;;;17.65;47.42;101480.34;4146499;28;20624;-58
2021/10/28 00:53:42;;;;;;;5.97;2.85;;;;;;;17.67;47.30;101481.16;4147798;28;20053;-55
2021/10/28 00:55:45;;;;;;;5.40;2.58;;;;;;;17.63;47.23;101476.91;4147839;28;20054;-54
2021/10/28 00:57:48;;;;;;;5.93;3.10;;;;;;;17.65;47.13;101480.34;4144486;28;20391;-57
2021/10/28 00:59:51;;;;;;;5.88;2.67;;;;;;;17.66;47.62;101485.59;4147694;28;20157;-56
2021/10/28 01:01:53;;;;;;;5.88;3.38;;;;;;;17.37;47.19;101428.63;4146340;28;20046;-55
2021/10/28 01:03:56;;;;;;;6.18;3.08;;;;;;;17.45;47.08;101441.50;4147486;28;20050;-55
2021/10/28 01:05:58;;;;;;;5.18;2.88;;;;;;;17.59;47.48;101468.22;4147510;28;20048;-59
2021/10/28 01:08:00;;;;;;;5.40;3.10;;;;;;;17.64;47.23;101482.13;4147481;28;20046;-55
2021/10/28 01:10:03;;;;;;;;;;;;;;;17.66;47.67;101474.94;4148309;28;20531;-57
2021/10/28 01:12:05;;;;;;;5.85;2.83;;;;;;;17.62;47.10;101469.88;4146810;28;19921;-55
2021/10/28 01:14:08;;;;;;;5.45;3.10;;;;;;;17.65;47.33;101467.91;4148034;28;20046;-57
2021/10/28 01:16:10;;;;;;;5.43;2.50;;;;;;;17.61;47.46;101465.50;4163945;28;20052;-60
2021/10/28 01:18:14;;;;;;;5.18;2.83;;;;;;;17.57;47.48;101454.19;4147386;28;20125;-57
2021/10/28 01:20:16;;;;;;;4.50;2.55;;;;;;;17.62;47.51;101459.22;4140872;28;20041;-55
2021/10/28 01:22:18;;;;;;;;;;;;;;;17.64;47.57;101465.34;4147770;28;20402;-60
2021/10/28 01:24:20;;;;;;;6.93;2.90;;;;;;;17.56;47.60;101449.78;4147407;28;19928;-57
2021/10/28 01:26:23;;;;;;;6.68;2.85;;;;;;;17.62;47.51;101465.44;4146326;28;20061;-57
2021/10/28 01:28:29;;;;;;;5.72;2.80;;;;;;;17.51;47.51;101444.72;4147114;28;20046;-54
2021/10/28 01:30:31;;;;;;;5.20;2.78;;;;;;;17.45;47.27;101428.22;4147365;28;20061;-55
2021/10/28 01:32:33;;;;;;;4.75;2.83;;;;;;;17.59;47.35;101451.44;4147277;28;20038;-57
2021/10/28 01:34:40;;;;;;;;;;;;;;;17.60;47.78;101451.34;4147569;28;20046;-55
2021/10/28 01:36:44;;;;;;;6.50;2.70;;;;;;;17.58;47.72;101447.88;4147028;28;20365;-56
2021/10/28 01:38:46;;;;;;;5.07;2.83;;;;;;;17.41;47.58;101419.53;4146982;28;20145;-57
2021/10/28 01:40:55;;;;;;;4.72;2.63;;;;;;;17.59;47.32;101446.94;4147251;28;20053;-56
2021/10/28 01:42:57;;;;;;;4.30;2.50;;;;;;;17.49;47.34;101427.13;4146822;28;20043;-60
2021/10/28 01:44:59;;;;;;;;;;;;;;;17.58;47.58;101437.25;4147496;28;20046;-60
2021/10/28 01:47:02;;;;;;;5.75;2.63;;;;;;;17.52;47.45;101434.91;4147174;28;20091;-54
2021/10/28 01:49:04;;;;;;;5.20;2.60;;;;;;;17.51;47.30;101427.88;4146837;28;20422;-57
2021/10/28 01:51:07;;;;;;;;;;;;;;;17.55;47.73;101435.63;4147375;28;20045;-59
2021/10/28 01:53:09;;;;;;;5.13;2.50;;;;;;;17.49;47.66;101427.97;4146636;28;19921;-56
2021/10/28 01:55:12;;;;;;;5.82;2.63;;;;;;;17.51;47.39;101427.88;4147105;28;20076;-55
2021/10/28 01:57:19;;;;;;;5.10;2.63;;;;;;;17.56;47.77;101436.50;4147432;28;20042;-57
2021/10/28 01:59:22;;;;;;;5.65;2.85;;;;;;;17.55;47.30;101440.09;4146577;28;20453;-57
2021/10/28 02:01:24;;;;;;;4.63;2.38;;;;;;;17.55;47.43;101442.75;4147170;28;20096;-57
2021/10/28 02:03:27;;;;;;;5.70;2.67;;;;;;;17.46;47.62;101417.50;4146828;28;20045;-55
2021/10/28 02:05:29;;;;;;;;;;;;;;;17.53;47.97;101432.19;4147377;28;20041;-55
2021/10/28 02:07:31;;;;;;;5.97;2.72;;;;;;;17.50;47.47;101429.69;4147051;28;20013;-54
2021/10/28 02:09:33;;;;;;;;;;;;;;;17.51;47.66;101427.88;4147060;28;20042;-62
2021/10/28 02:11:36;;;;;;;5.70;2.42;;;;;;;17.45;47.48;101421.09;4146640;28;19921;-56
2021/10/28 02:13:38;;;;;;;4.47;2.35;;;;;;;17.18;47.78;101371.13;4150011;28;20037;-57
2021/10/28 02:15:40;;;;;;;;;;;;;;;17.49;47.95;101411.16;4157345;28;20050;-54
2021/10/28 02:17:43;;;;;;;4.47;2.42;;;;;;;17.44;47.48;101410.53;4146593;28;20293;-61
2021/10/28 02:19:45;;;;;;;5.55;2.67;;;;;;;17.46;47.49;101412.19;4146224;28;20092;-58
2021/10/28 02:21:47;;;;;;;6.20;2.58;;;;;;;17.37;47.35;101388.75;4146451;28;20057;-57
2021/10/28 02:23:49;;;;;;;;;;;;;;;17.47;47.58;101405.91;4146618;28;20054;-55
2021/10/28 02:25:51;;;;;;;5.63;2.75;;;;;;;17.33;47.44;101374.75;4146442;28;19925;-55
2021/10/28 02:27:53;;;;;;;5.78;2.60;;;;;;;17.43;47.78;101391.06;4146520;28;20041;-56
2021/10/28 02:29:56;;;;;;;4.78;2.58;;;;;;;17.46;47.67;101396.25;4146109;28;20054;-54
2021/10/28 02:31:58;;;;;;;5.63;2.53;;;;;;;17.39;47.50;101377.09;4146428;28;20407;-62
2021/10/28 02:34:00;;;;;;;4.68;2.45;;;;;;;17.46;47.47;101377.63;4146281;28;20042;-56
2021/10/28 02:36:03;;;;;;;4.57;2.40;;;;;;;17.43;47.44;101382.25;4142699;28;20092;-55
2021/10/28 02:38:05;;;;;;;5.35;2.60;;;;;;;17.33;47.71;101363.28;4146344;28;20115;-65
2021/10/28 02:40:07;;;;;;;;;;;;;;;17.44;47.68;101379.50;4146434;28;20046;-58
2021/10/28 02:42:10;;;;;;;;;;;;;;;17.40;47.82;101378.81;4146602;28;20271;-58
2021/10/28 02:44:13;;;;;;;4.30;2.25;;;;;;;17.33;47.83;101360.63;4146217;28;19925;-57
2021/10/28 02:46:15;;;;;;;5.13;2.45;;;;;;;17.23;47.69;101339.84;4146112;28;20050;-63
2021/10/28 02:48:17;;;;;;;5.22;2.45;;;;;;;17.30;47.70;101339.50;4145986;28;20474;-57
2021/10/28 02:50:19;;;;;;;;;;;;;;;17.41;47.73;101366.34;4146025;28;20053;-59
2021/10/28 02:52:22;;;;;;;4.72;2.28;;;;;;;16.92;47.88;101284.81;4144629;28;20356;-56
2021/10/28 02:54:24;;;;;;;4.53;2.50;;;;;;;17.39;47.87;101363.78;4145866;28;20046;-62
2021/10/28 02:56:26;;;;;;;4.72;2.35;;;;;;;17.37;47.60;101360.34;4145686;28;20045;-57
2021/10/28 02:58:28;;;;;;;4.63;2.33;;;;;;;17.36;47.78;101353.34;4145561;28;20050;-55
2021/10/28 03:00:31;;;;;;;4.72;2.60;;;;;;;17.41;47.82;101355.72;4144136;28;20469;-58
2021/10/28 03:02:33;;;;;;;5.43;2.65;;;;;;;17.25;47.58;101334.44;4144576;28;20041;-56
2021/10/28 03:04:36;;;;;;;5.32;2.50;;;;;;;17.07;47.64;101296.41;4145591;28;20415;-58
2021/10/28 03:06:39;;;;;;;5.28;2.50;;;;;;;17.37;47.45;101355.03;4145487;28;20042;-56
2021/10/28 03:08:42;;;;;;;4.82;2.45;;;;;;;17.31;47.71;101343.88;4145598;28;20144;-58
2021/10/28 03:10:44;;;;;;;6.05;2.55;;;;;;;17.28;47.42;101344.91;4145380;28;20050;-57
2021/10/28 03:12:50;;;;;;;5.25;2.50;;;;;;;17.33;47.43;101348.16;4145463;28;20425;-58
2021/10/28 03:14:56;;;;;;;4.78;2.38;;;;;;;17.36;47.29;101355.13;4151671;28;20041;-56
2021/10/28 03:17:25;;;;;;;5.38;2.67;;;;;;;17.37;47.29;101359.50;4147077;28;20461;-55
2021/10/28 03:26:08;;;;;;;4.75;2.28;;;;;;;17.33;47.69;101356.16;4145410;28;20042;-60
2021/10/28 03:28:12;;;;;;;;;;;;;;;17.33;47.94;101358.81;4145809;28;20098;-55
2021/10/28 03:30:15;;;;;;;5.78;2.83;;;;;;;17.30;47.49;101352.78;4145401;28;19921;-55
2021/10/28 03:32:20;;;;;;;6.00;2.67;;;;;;;17.29;47.32;101337.78;4145217;28;20038;-57
2021/10/28 03:34:22;;;;;;;5.53;2.78;;;;;;;17.30;47.84;101340.34;4145371;28;20065;-56
2021/10/28 03:36:43;;;;;;;;;;;;;;;17.31;47.69;101349.19;4147506;28;20107;-57
2021/10/28 03:39:26;;;;;;;5.13;2.50;;;;;;;17.17;47.66;101323.34;4148815;28;19929;-55
2021/10/28 03:41:58;;;;;;;4.55;2.53;;;;;;;17.24;47.92;101325.59;4149020;28;20058;-55
2021/10/28 03:59:45;;;;;;;;;;;;;;;17.26;47.79;101317.53;4148612;28;20061;-57
2021/10/28 04:02:41;;;;;;;5.97;2.83;;;;;;;17.23;47.69;101315.91;4148303;28;19937;-54
2021/10/28 04:06:44;;;;;;;5.68;3.10;;;;;;;17.02;47.68;101279.84;4148206;28;20096;-54
2021/10/28 04:18:37;;;;;;;5.38;2.97;;;;;;;17.16;47.57;101308.34;4147919;28;20056;-57
2021/10/28 04:29:50;;;;;;;6.47;3.33;;;;;;;16.99;47.51;101283.53;4144281;28;20057;-61
2021/10/28 04:31:52;;;;;;;5.82;3.35;;;;;;;17.05;47.58;101295.66;4148009;28;20057;-59
2021/10/28 04:33:58;;;;;;;5.40;3.20;;;;;;;16.95;47.67;101274.03;4147496;28;20037;-69
2021/10/28 04:36:00;;;;;;;6.00;3.47;;;;;;;17.11;47.70;101302.41;4147702;28;20046;-53
2021/10/28 04:38:03;;;;;;;;;;;;;;;17.17;48.00;101315.38;4148095;28;20054;-60
2021/10/28 04:40:09;;;;;;;5.90;3.17;;;;;;;16.73;47.52;101245.03;4147538;28;19922;-54
2021/10/28 04:42:11;;;;;;;5.13;3.08;;;;;;;17.16;47.75;101311.88;4147783;28;20053;-59
2021/10/28 04:44:13;;;;;;;5.85;3.20;;;;;;;16.81;47.76;101258.78;4147516;28;20041;-59
2021/10/28 04:46:15;;;;;;;;;;;;;;;17.13;47.92;101312.00;4147951;28;20440;-66
2021/10/28 04:48:17;;;;;;;5.57;3.00;;;;;;;17.13;47.72;101314.66;4146248;28;20298;-68
2021/10/28 04:50:20;;;;;;;5.15;3.00;;;;;;;17.05;47.52;101299.16;4147216;28;20046;-60
2021/10/28 04:52:23;;;;;;;4.95;3.00;;;;;;;16.92;47.54;101279.50;4147615;28;20447;-56
2021/10/28 04:54:27;;;;;;;6.05;3.10;;;;;;;17.14;47.63;101313.72;4147389;28;20044;-60
2021/10/28 04:56:29;;;;;;;;;;;;;;;17.12;47.47;101312.09;4147881;28;20042;-55
2021/10/28 04:58:31;;;;;;;6.00;3.60;;;;;;;17.00;47.67;101295.88;4147289;28;19967;-59
2021/10/28 05:00:34;;;;;;;5.75;3.00;;;;;;;17.09;47.72;101313.13;4145926;28;20498;-57
2021/10/28 05:02:36;;;;;;;5.93;3.28;;;;;;;17.09;47.48;101313.13;4147447;28;20046;-55
2021/10/28 05:04:38;;;;;;;6.28;3.35;;;;;;;17.12;47.36;101320.06;4147195;28;20512;-53
2021/10/28 05:06:41;;;;;;;;;;;;;;;17.09;47.59;101311.31;4147519;28;20425;-54
2021/10/28 05:08:44;;;;;;;6.03;3.20;;;;;;;17.02;47.77;101293.13;4147407;28;19933;-58
2021/10/28 05:10:46;;;;;;;5.93;3.28;;;;;;;17.04;47.80;101305.41;4146939;28;20107;-55
2021/10/28 05:12:48;;;;;;;5.95;3.20;;;;;;;16.99;47.47;101294.16;4147304;28;20531;-56
2021/10/28 05:14:50;;;;;;;;;;;;;;;17.07;47.92;101307.03;4147590;28;20052;-58
2021/10/28 05:16:57;;;;;;;4.88;2.92;;;;;;;16.96;47.42;101294.31;4147197;28;20340;-56
2021/10/28 05:18:59;;;;;;;5.10;3.03;;;;;;;16.95;47.72;101291.75;4147328;28;20524;-64
2021/10/28 05:21:01;;;;;;;;;;;;;;;17.04;47.69;101308.06;4147029;28;20521;-54
2021/10/28 05:23:03;;;;;;;5.63;2.80;;;;;;;17.03;47.66;101309.00;4147100;28;19925;-57
2021/10/28 05:25:05;;;;;;;6.28;3.08;;;;;;;16.94;47.54;101298.88;4146830;28;20046;-55
2021/10/28 05:27:07;;;;;;;5.68;3.15;;;;;;;17.05;47.59;101311.59;4146987;28;20544;-54
2021/10/28 05:29:30;;;;;;;5.45;2.97;;;;;;;16.97;47.29;101296.03;4147011;28;20104;-54
2021/10/28 05:31:32;;;;;;;;;;;;;;;17.02;47.59;101303.78;4147165;28;20430;-55
2021/10/28 05:33:34;;;;;;;5.45;3.33;;;;;;;17.00;47.81;101311.84;4146912;28;19929;-57
2021/10/28 05:35:36;;;;;;;4.93;2.92;;;;;;;17.01;47.69;101305.59;4146743;28;20034;-55
2021/10/28 05:37:39;;;;;;;5.22;2.95;;;;;;;16.83;47.79;101277.28;4146820;28;20486;-59
2021/10/28 05:39:41;;;;;;;6.30;3.40;;;;;;;17.00;47.82;101308.28;4146870;28;20042;-56
2021/10/28 05:41:58;;;;;;;5.22;3.00;;;;;;;16.98;47.65;101307.53;4146554;28;20046;-63
2021/10/28 05:44:01;;;;;;;5.32;2.85;;;;;;;16.92;47.50;101298.94;4146874;28;20068;-56
2021/10/28 05:46:03;;;;;;;6.20;3.10;;;;;;;16.91;47.46;101296.34;4146266;28;20509;-55
2021/10/28 05:48:06;;;;;;;5.35;2.95;;;;;;;17.00;47.63;101309.19;4146737;28;20046;-53
2021/10/28 05:50:16;;;;;;;5.15;3.17;;;;;;;16.84;47.43;101282.53;4146796;28;20558;-55
2021/10/28 05:52:18;;;;;;;6.13;3.17;;;;;;;16.68;47.42;101263.03;4146505;28;20053;-67
2021/10/28 05:54:20;;;;;;;;;;;;;;;16.98;47.94;101304.88;4146985;28;20050;-63
2021/10/28 05:56:22;;;;;;;6.82;3.40;;;;;;;16.97;47.43;101316.44;4146359;28;19922;-54
2021/10/28 05:58:24;;;;;;;5.53;3.25;;;;;;;16.90;47.61;101303.47;4145871;28;20083;-63
2021/10/28 06:00:27;;;;;;;6.15;3.38;;;;;;;16.74;47.43;101268.88;4146492;28;20046;-59
2021/10/28 06:02:29;;;;;;;5.30;3.30;;;;;;;16.96;47.72;101299.63;4146465;28;20042;-57
2021/10/28 06:04:31;;;;;;;6.45;3.08;;;;;;;16.96;47.44;101299.63;4161579;28;20042;-61
2021/10/28 06:06:34;;;;;;;;;;;;;;;16.94;47.91;101309.50;4146580;28;20467;-54
2021/10/28 06:08:36;;;;;;;5.00;2.90;;;;;;;16.92;47.73;101306.06;4145265;28;20443;-59
2021/10/28 06:10:38;;;;;;;5.85;3.00;;;;;;;16.93;47.86;101310.44;4146775;28;20506;-55
2021/10/28 06:12:44;;;;;;;5.50;3.10;;;;;;;16.83;47.50;101294.09;4146226;28;20096;-55
2021/10/28 06:14:46;;;;;;;7.35;3.13;;;;;;;16.84;47.52;101293.16;4152412;28;20050;-56
2021/10/28 06:16:53;;;;;;;6.10;3.22;;;;;;;16.93;47.25;101310.44;4157828;28;20045;-54
2021/10/28 06:18:55;;;;;;;5.80;3.00;;;;;;;16.87;47.90;101305.41;4135779;28;20072;-56
2021/10/28 06:20:57;;;;;;;;;;;;;;;16.89;47.76;101303.50;4146508;28;20111;-56
2021/10/28 06:22:59;;;;;;;6.47;3.40;;;;;;;16.76;47.79;101284.72;4146064;28;19921;-54
2021/10/28 06:25:03;;;;;;;;;;;;;;;16.87;47.73;101305.41;4146754;28;20050;-54
2021/10/28 06:27:05;;;;;;;5.60;3.05;;;;;;;16.80;47.84;101294.25;4146044;28;20370;-54
2021/10/28 06:29:07;;;;;;;5.72;2.70;;;;;;;16.73;47.60;101283.09;4146182;28;20069;-54
2021/10/28 06:31:09;;;;;;;;;;;;;;;16.85;47.71;101310.78;4146836;28;20045;-55
2021/10/28 06:33:27;;;;;;;6.00;2.97;;;;;;;16.81;47.87;101305.75;4145778;28;19925;-57
2021/10/28 06:35:30;;;;;;;5.35;3.40;;;;;;;16.74;47.50;101292.78;4146200;28;20064;-58
2021/10/28 06:37:32;;;;;;;6.82;3.55;;;;;;;16.83;47.46;101307.38;4145581;28;20502;-57
2021/10/28 06:39:34;;;;;;;6.00;3.33;;;;;;;16.85;47.24;101310.78;4145834;28;20052;-54
2021/10/28 06:41:37;;;;;;;5.80;3.10;;;;;;;16.83;47.66;101306.50;4145872;28;20045;-54
2021/10/28 06:43:39;;;;;;;5.20;3.33;;;;;;;16.84;47.61;101314.41;4145688;28;20057;-57
2021/10/28 06:45:41;;;;;;;5.80;3.00;;;;;;;16.79;47.57;101304.97;4145975;28;20060;-55
2021/10/28 06:47:44;;;;;;;5.60;3.38;;;;;;;16.85;47.43;101317.91;4145773;28;20054;-55
2021/10/28 06:49:46;;;;;;;5.55;3.28;;;;;;;16.74;47.81;101302.53;4145805;28;20050;-54
2021/10/28 06:51:48;;;;;;;6.68;3.28;;;;;;;16.84;47.57;101316.19;4145921;28;20053;-56
2021/10/28 06:54:05;;;;;;;6.35;3.22;;;;;;;16.82;47.38;101312.78;4145545;28;20053;-55
2021/10/28 07:03:09;;;;;;;5.25;2.97;;;;;;;16.81;47.56;101313.72;4145963;28;20046;-54
2021/10/28 07:05:12;;;;;;;6.07;3.13;;;;;;;16.73;47.59;101306.13;4145924;28;20042;-55
2021/10/28 07:07:15;;;;;;;5.35;3.25;;;;;;;16.79;47.61;101312.94;4145957;28;20046;-54
2021/10/28 07:09:27;;;;;;;6.50;3.30;;;;;;;16.76;47.53;101303.31;4145647;28;20100;-57
2021/10/28 07:11:32;;;;;;;7.47;3.13;;;;;;;16.80;47.42;101312.84;4145274;28;20052;-57
2021/10/28 07:13:36;;;;;;;5.68;3.38;;;;;;;16.74;47.65;101299.88;4146503;28;20087;-54
2021/10/28 07:15:45;;;;;;;5.78;3.30;;;;;;;16.79;47.43;101311.13;4158113;28;20486;-55
2021/10/28 07:20:25;;;;;;;5.68;3.42;;;;;;;16.68;47.33;101293.06;4146485;28;20686;-55
2021/10/28 08:15:58;;;;;;;6.15;3.92;;;;;;;16.66;47.48;101296.75;4143076;28;20053;-57
2021/10/28 08:22:50;;;;;;;7.97;4.95;;;;;;;16.67;47.09;101288.72;4144181;28;20473;-61
2021/10/28 08:31:26;;;;;;;10.15;4.93;;;;;;;16.58;47.66;101262.66;4147847;28;20509;-61
2021/10/28 08:33:29;;;;;;;12.23;5.75;;;;;;;16.66;47.57;101272.84;4147909;28;20088;-55
2021/10/28 08:35:33;;;;;;;9.60;5.00;;;;;;;16.70;47.75;101279.75;4145412;28;20042;-57
2021/10/28 08:37:42;;;;;;;9.73;4.75;;;;;;;16.81;47.69;101295.13;4146181;28;20513;-60
2021/10/28 08:39:46;;;;;;;9.48;4.88;;;;;;;16.83;47.72;101294.09;4142466;28;20046;-64
2021/10/28 08:41:49;;;;;;;9.20;4.70;;;;;;;16.63;47.25;101247.31;4145922;28;20053;-56
2021/10/28 08:43:55;;;;;;;10.48;5.50;;;;;;;16.61;47.12;101238.59;4141848;28;20093;-60
2021/10/28 08:46:01;;;;;;;12.38;5.85;;;;;;;16.71;47.07;101254.91;4144020;28;20049;-57
2021/10/28 08:48:07;;;;;;;8.57;4.53;;;;;;;16.85;46.99;101278.91;4149133;28;20421;-55
2021/10/28 08:50:19;;;;;;;7.68;4.32;;;;;;;16.85;47.37;101275.41;4147576;28;20100;-63
2021/10/28 08:53:12;;;;;;;7.32;4.65;;;;;;;16.72;46.67;101264.56;4148574;28;20486;-57
2021/10/28 08:57:38;;;;;;;7.05;4.70;;;;;;;16.66;46.80;101239.22;4143634;28;20619;-60
2021/10/28 08:59:56;;;;;;;;;;;;;;;16.82;47.17;101260.50;4147142;28;20068;-61
2021/10/28 09:24:36;;;;;;;6.90;4.30;;;;;;;16.84;46.46;101224.09;4145832;28;20417;-56
2021/10/28 09:26:46;;;;;;;6.95;4.30;;;;;;;16.85;46.55;101222.28;4146786;28;20537;-61
2021/10/28 09:29:01;;;;;;;7.03;3.92;;;;;;;16.89;46.75;101226.47;4146297;28;20497;-64
2021/10/28 09:31:08;;;;;;;6.97;4.10;;;;;;;16.80;46.60;101208.38;4146406;28;20099;-58
2021/10/28 09:33:28;;;;;;;7.93;4.35;;;;;;;16.83;46.72;101210.88;4145805;28;20045;-64
2021/10/28 09:35:52;;;;;;;6.95;4.70;;;;;;;16.77;46.70;101199.63;4136643;28;20091;-57
2021/10/28 09:47:30;;;;;;;7.60;4.28;;;;;;;16.83;46.20;101200.25;4147947;28;20088;-58
2021/10/28 09:49:56;;;;;;;8.45;4.40;;;;;;;16.86;46.50;101208.06;4145993;28;20042;-57
2021/10/28 09:52:15;;;;;;;9.23;4.20;;;;;;;16.83;46.94;101205.56;4142149;28;20042;-54
2021/10/28 09:54:49;;;;;;;8.25;4.90;;;;;;;16.80;46.74;101201.25;4145998;28;20062;-54
2021/10/28 09:59:57;;;;;;;7.15;4.82;;;;;;;16.81;46.91;101210.13;4146273;28;20500;-53
2021/10/28 10:04:09;;;;;;;7.95;4.95;;;;;;;16.33;47.15;101133.84;4147352;28;20544;-60
2021/10/28 10:06:25;;;;;;;8.93;5.00;;;;;;;16.84;46.89;101210.81;4146185;28;20045;-55
2021/10/28 10:08:28;;;;;;;7.85;4.60;;;;;;;16.73;46.79;101194.56;4146209;28;20205;-58
2021/10/28 10:10:31;;;;;;;10.65;4.80;;;;;;;16.83;46.99;101208.22;4147077;28;20504;-60
2021/10/28 10:12:36;;;;;;;10.18;5.28;;;;;;;16.86;46.88;101208.06;4147286;28;20667;-59
2021/10/28 10:14:40;;;;;;;8.20;5.03;;;;;;;16.72;46.94;101171.59;4171820;28;20116;-58
2021/10/28 10:16:42;;;;;;;9.85;4.68;;;;;;;16.48;47.07;101121.56;4153322;28;20129;-55
2021/10/28 10:18:48;;;;;;;6.80;4.43;;;;;;;16.75;47.07;101163.47;4146863;28;20516;-54
2021/10/28 10:23:19;;;;;;;10.52;5.57;;;;;;;16.94;46.69;101179.31;4146333;28;20046;-57
2021/10/28 10:25:42;;;;;;;9.35;5.00;;;;;;;16.95;46.92;101178.38;4145941;28;20551;-57
2021/10/28 10:30:22;;;;;;;9.95;5.22;;;;;;;16.71;46.94;101138.88;4146362;28;20045;-61
2021/10/28 11:23:30;;;;;;;7.53;4.00;;;;;;;17.23;47.36;101097.06;4141866;28;20046;-55
2021/10/28 12:15:09;;;;;;;17.38;10.98;;;;;;;17.34;47.83;101006.06;4158144;28;20361;-62
2021/10/28 12:17:24;;;;;;;28.77;18.52;;;;;;;17.38;47.71;101011.09;4169489;28;20045;-61
2021/10/28 12:24:49;;;;;;;46.22;22.08;;;;;;;17.36;48.08;100989.09;4155686;28;20322;-57
2021/10/28 12:44:25;;;;;;;97.75;51.90;;;;;;;17.52;49.07;100938.50;4147652;28;20096;-57
2021/10/28 12:48:59;;;;;;;70.72;42.42;;;;;;;17.27;48.85;100893.94;4147900;28;20422;-55
2021/10/28 12:51:38;;;;;;;63.83;39.40;;;;;;;17.61;48.54;100933.56;4147491;28;20417;-54
2021/10/28 13:06:11;;;;;;;48.15;28.52;;;;;;;17.60;48.24;100891.97;4132927;28;20042;-53
2021/10/28 13:28:10;;;;;;;52.47;28.42;;;;;;;17.62;48.64;100890.91;4134924;28;20081;-56
2021/10/28 14:32:30;;;;;;;28.70;15.55;;;;;;;18.10;48.75;100809.88;4137562;28;20437;-56
2021/10/28 14:37:12;;;;;;;30.38;15.63;;;;;;;18.34;48.28;100810.88;4147862;28;20046;-63
2021/10/28 14:39:34;;;;;;;32.20;16.38;;;;;;;18.39;49.04;100796.44;4146259;28;20465;-55
2021/10/28 15:28:42;;;;;;;37.05;24.70;;;;;;;18.71;46.63;100761.41;4145819;28;20045;-56
2021/10/28 15:39:24;;;;;;;21.48;14.23;;;;;;;18.70;46.54;100749.91;4145499;28;20057;-57
2021/10/28 15:41:49;;;;;;;21.10;11.68;;;;;;;18.61;46.83;100737.22;4145349;28;20042;-57
2021/10/28 16:21:47;;;;;;;;;;;;;;;18.71;45.93;100732.09;4139288;28;20100;-61
2021/10/28 16:22:47;;;;;;;8.93;4.30;;;;;;;18.69;45.00;100713.56;4142661;28;20050;-60
2021/10/28 16:24:49;;;;;;;7.85;4.03;;;;;;;18.70;45.12;100711.75;4141221;28;20413;-63
2021/10/28 16:26:52;;;;;;;;;;;;;;;18.67;45.01;100707.50;4143681;28;20506;-52
2021/10/28 16:28:57;;;;;;;7.47;3.65;;;;;;;18.65;44.90;100699.63;4143132;28;20341;-58
2021/10/28 16:30:59;;;;;;;9.35;4.60;;;;;;;18.58;45.29;100687.69;4143520;28;20042;-54
2021/10/28 16:33:01;;;;;;;7.53;4.15;;;;;;;18.62;45.21;100693.66;4142725;28;20096;-53
2021/10/28 16:35:05;;;;;;;7.40;3.80;;;;;;;18.66;44.98;100704.00;4144765;28;20457;-52
2021/10/28 16:37:08;;;;;;;8.27;3.95;;;;;;;18.60;45.20;100690.22;4145075;28;20108;-52
2021/10/28 16:39:12;;;;;;;8.68;3.80;;;;;;;18.64;45.32;100694.38;4137290;28;20865;-50
2021/10/28 16:41:17;;;;;;;9.50;4.07;;;;;;;18.66;45.49;100695.13;4144389;28;20046;-54
2021/10/28 16:43:21;;;;;;;8.15;3.95;;;;;;;18.58;45.60;100681.50;4145787;28;20088;-60
2021/10/28 16:45:26;;;;;;;8.38;4.10;;;;;;;18.58;45.43;100677.03;4140985;28;20556;-50
2021/10/28 16:47:31;;;;;;;11.68;3.90;;;;;;;18.54;45.42;100674.69;4144115;28;20096;-57
2021/10/28 16:49:35;;;;;;;7.53;3.60;;;;;;;18.64;45.15;100689.03;4144737;28;20034;-54
2021/10/28 16:51:41;;;;;;;11.85;3.88;;;;;;;18.59;45.45;100683.19;4147776;28;20494;-51
2021/10/28 16:53:45;;;;;;;9.70;3.65;;;;;;;18.63;45.39;100690.03;4147312;28;20054;-53
2021/10/28 16:55:50;;;;;;;10.25;3.80;;;;;;;18.57;45.31;100680.66;4146532;28;20046;-53
2021/10/28 16:57:54;;;;;;;11.77;3.88;;;;;;;18.61;45.37;100681.28;4147175;28;20398;-54
2021/10/28 17:00:06;;;;;;;10.25;3.53;;;;;;;18.60;45.46;100679.56;4147270;28;20038;-52
2021/10/28 17:02:10;;;;;;;9.85;4.03;;;;;;;18.57;45.17;100675.31;4147687;28;20046;-51
2021/10/28 17:04:14;;;;;;;8.27;4.00;;;;;;;18.63;45.33;100687.38;4147320;28;20046;-52
2021/10/28 17:06:20;;;;;;;10.73;3.30;;;;;;;18.61;45.40;100682.13;4147251;28;20092;-52
2021/10/28 17:08:29;;;;;;;7.22;3.30;;;;;;;18.60;45.44;100682.25;4147179;28;20077;-53
2021/10/28 17:10:33;;;;;;;6.47;3.70;;;;;;;18.64;45.53;100689.03;4146950;28;20053;-53
2021/10/28 17:12:39;;;;;;;8.40;3.22;;;;;;;18.66;45.31;100696.00;4147503;28;20103;-52
2021/10/28 17:14:44;;;;;;;7.65;3.33;;;;;;;18.60;45.44;100677.75;4146869;28;20080;-52
2021/10/28 17:16:48;;;;;;;8.20;3.30;;;;;;;18.68;45.21;100695.88;4158676;28;20122;-53
2021/10/28 17:18:53;;;;;;;7.82;3.45;;;;;;;18.66;45.16;100696.00;4158509;28;20513;-52
2021/10/28 17:21:00;;;;;;;7.28;3.30;;;;;;;18.66;45.43;100692.47;4147032;28;20494;-50
2021/10/28 17:23:05;;;;;;;9.48;3.33;;;;;;;18.44;45.54;100659.34;4147397;28;20045;-52
2021/10/28 17:25:09;;;;;;;7.25;3.33;;;;;;;18.63;45.16;100692.69;4147210;28;20060;-51
2021/10/28 17:27:11;;;;;;;7.97;3.28;;;;;;;18.57;45.16;100683.31;4147445;28;20144;-54
2021/10/28 17:29:14;;;;;;;7.97;3.45;;;;;;;18.58;45.15;100685.03;4147040;28;20041;-50
2021/10/28 17:31:16;;;;;;;8.18;3.63;;;;;;;18.28;45.29;100637.41;4146908;28;20096;-57
2021/10/28 17:33:21;;;;;;;11.77;3.63;;;;;;;18.58;45.69;100686.81;4141392;28;20043;-54
2021/10/28 17:35:24;;;;;;;6.85;3.38;;;;;;;18.62;45.18;100699.81;4143905;28;20046;-53
2021/10/28 17:37:27;;;;;;;9.90;3.90;;;;;;;18.62;45.31;100688.31;4147090;28;20557;-57
2021/10/28 17:39:30;;;;;;;10.85;4.15;;;;;;;18.61;45.02;100695.44;4146645;28;20457;-59
2021/10/28 17:41:33;;;;;;;8.55;3.88;;;;;;;18.60;45.28;100695.56;4146765;28;20045;-56
2021/10/28 17:43:41;;;;;;;;;;;;;;;18.56;45.07;100686.94;4147495;28;20042;-53
2021/10/28 17:45:43;;;;;;;8.13;4.40;;;;;;;18.45;45.50;100679.69;4146598;28;20378;-55
2021/10/28 17:47:46;;;;;;;8.75;4.88;;;;;;;18.33;45.26;100657.41;4146920;28;20042;-53
2021/10/28 17:49:48;;;;;;;10.45;4.60;;;;;;;18.42;45.13;100673.72;4147177;28;20052;-54
2021/10/28 17:52:10;;;;;;;9.48;4.60;;;;;;;18.51;44.85;100691.72;4142151;28;20053;-56
2021/10/28 17:54:13;;;;;;;12.25;4.38;;;;;;;18.47;45.29;100684.91;4149501;28;20042;-53
2021/10/28 17:56:15;;;;;;;;;;;;;;;18.44;45.36;100688.63;4146831;28;20045;-57
2021/10/28 17:58:18;;;;;;;19.02;4.40;;;;;;;18.42;45.75;100684.38;4146497;28;20019;-56
2021/10/28 18:00:24;;;;;;;17.83;4.32;;;;;;;18.25;45.80;100645.59;4146507;28;20042;-54
2021/10/28 18:02:26;;;;;;;13.77;4.22;;;;;;;18.48;45.67;100681.28;4146768;28;20037;-53